Time;durP1;ratioP1;P1;durP2;ratioP2;P2;SDS_P1;SDS_P2;PMS_P1;PMS_P2;Temp;Humidity;BMP_temperature;BMP_pressure;BME280_temperature;BME280_humidity;BME280_pressure;Samples;Min_cycle;Max_cycle;Signal;HPM_P1;HPM_P2
2022/08/09 00:04:07;;;;;;;2.08;1.75;;;22.40;59.00;;;;;;10532596;28;20028;-53
2022/08/09 00:09:08;;;;;;;1.65;1.40;;;22.40;59.00;;;;;;10513782;28;20032;-53
2022/08/09 00:14:09;;;;;;;2.25;1.17;;;22.40;59.00;;;;;;10514037;28;20119;-52
2022/08/09 00:19:10;;;;;;;1.25;0.93;;;22.40;59.00;;;;;;10513618;28;20031;-52
2022/08/09 00:24:11;;;;;;;1.67;1.25;;;22.40;59.00;;;;;;10504305;28;20032;-53
2022/08/09 00:29:12;;;;;;;2.67;1.48;;;22.40;58.90;;;;;;10527360;28;20032;-53
2022/08/09 00:34:12;;;;;;;2.85;1.50;;;22.40;58.90;;;;;;10531484;28;20421;-52
2022/08/09 00:39:13;;;;;;;1.45;1.30;;;22.40;58.90;;;;;;10520586;28;20044;-54
2022/08/09 00:44:14;;;;;;;1.83;1.38;;;22.40;59.00;;;;;;10538521;28;20059;-52
2022/08/09 00:49:15;;;;;;;2.45;1.60;;;22.40;59.00;;;;;;10537922;28;20025;-52
2022/08/09 00:54:16;;;;;;;1.60;1.33;;;22.40;59.00;;;;;;10520215;28;20048;-52
2022/08/09 00:59:16;;;;;;;2.72;1.77;;;22.30;58.90;;;;;;10519449;28;20085;-52
2022/08/09 01:04:35;;;;;;;2.05;1.30;;;22.40;59.00;;;;;;10537831;28;20020;-52
2022/08/09 01:09:47;;;;;;;2.17;1.50;;;22.30;58.90;;;;;;10519933;28;20036;-52
2022/08/09 01:14:57;;;;;;;1.98;1.30;;;22.30;58.90;;;;;;10537163;28;20025;-51
2022/08/09 01:20:08;;;;;;;1.55;1.40;;;22.30;58.90;;;;;;10505832;28;20089;-53
2022/08/09 01:25:55;;;;;;;2.03;1.80;;;22.30;58.90;;;;;;10518450;28;20797;-53
2022/08/09 01:30:59;;;;;;;2.47;1.60;;;22.30;58.90;;;;;;10519984;28;20128;-53
2022/08/09 01:36:10;;;;;;;2.78;1.70;;;22.30;58.90;;;;;;10517966;28;20028;-53
2022/08/09 01:41:15;;;;;;;1.67;1.58;;;22.30;59.00;;;;;;10518458;28;20444;-53
2022/08/09 01:46:23;;;;;;;3.10;1.60;;;22.30;58.90;;;;;;10517011;28;20059;-52
2022/08/09 01:51:25;;;;;;;1.50;1.20;;;22.30;58.90;;;;;;10518299;28;20028;-53
2022/08/09 01:56:27;;;;;;;2.05;1.50;;;22.30;59.00;;;;;;10517423;28;20286;-51
2022/08/09 02:01:30;;;;;;;1.73;1.33;;;22.30;59.00;;;;;;10517192;28;20036;-52
2022/08/09 02:11:54;;;;;;;3.72;1.65;;;22.30;59.00;;;;;;10519366;28;20044;-51
2022/08/09 02:16:55;;;;;;;2.10;1.35;;;22.30;58.90;;;;;;10516228;28;20059;-52
2022/08/09 02:22:00;;;;;;;1.58;1.40;;;22.20;58.80;;;;;;10516191;28;20055;-53
2022/08/09 02:27:05;;;;;;;1.92;1.50;;;22.30;58.90;;;;;;10515922;28;20043;-53
2022/08/09 02:32:10;;;;;;;2.08;1.67;;;22.20;58.80;;;;;;10534726;28;20024;-53
2022/08/09 02:37:15;;;;;;;2.17;1.30;;;22.30;58.80;;;;;;10515664;28;20042;-53
2022/08/09 02:42:22;;;;;;;1.70;1.35;;;22.20;58.80;;;;;;10498903;28;20085;-54
2022/08/09 02:47:23;;;;;;;1.85;1.40;;;22.20;58.80;;;;;;10515730;28;20028;-54
2022/08/09 02:52:39;;;;;;;1.75;1.50;;;22.20;58.80;;;;;;10515010;28;20051;-52
2022/08/09 02:57:42;;;;;;;2.33;1.38;;;22.20;58.80;;;;;;10516090;28;20032;-52
2022/08/09 03:02:50;;;;;;;1.52;1.17;;;22.20;58.80;;;;;;10515021;28;20584;-52
2022/08/09 03:07:54;;;;;;;1.77;1.47;;;22.20;58.80;;;;;;10515346;28;20533;-50
2022/08/09 03:12:56;;;;;;;1.75;1.42;;;22.20;59.40;;;;;;10532503;28;20070;-53
2022/08/09 03:17:58;;;;;;;2.90;1.40;;;22.20;59.30;;;;;;10532515;28;20028;-52
2022/08/09 03:23:00;;;;;;;1.70;1.10;;;22.20;58.70;;;;;;10514552;28;20020;-52
2022/08/09 03:28:04;;;;;;;1.60;1.30;;;22.20;58.70;;;;;;10513896;28;20085;-52
2022/08/09 03:33:08;;;;;;;2.42;1.40;;;22.20;58.70;;;;;;10513954;28;20032;-53
2022/08/09 03:38:09;;;;;;;1.50;1.40;;;22.20;58.70;;;;;;10532334;28;20039;-53
2022/08/09 03:43:09;;;;;;;2.03;1.42;;;22.20;58.70;;;;;;10513887;28;20353;-53
2022/08/09 03:48:10;;;;;;;1.63;1.13;;;22.20;58.70;;;;;;10497033;28;20024;-55
2022/08/09 03:53:12;;;;;;;2.50;1.90;;;22.20;58.70;;;;;;10513668;28;20032;-52
2022/08/09 03:58:13;;;;;;;2.30;1.48;;;22.20;58.70;;;;;;10513815;28;20094;-53
2022/08/09 04:03:15;;;;;;;1.73;1.40;;;22.10;58.60;;;;;;10511851;28;20134;-51
2022/08/09 04:08:16;;;;;;;2.03;1.58;;;22.10;58.60;;;;;;10510777;28;20028;-53
2022/08/09 04:13:17;;;;;;;1.67;1.48;;;22.10;58.60;;;;;;10535465;28;20415;-52
2022/08/09 04:18:18;;;;;;;3.10;1.50;;;22.10;58.70;;;;;;10520153;28;20387;-52
2022/08/09 04:23:20;;;;;;;4.28;1.90;;;22.20;58.80;;;;;;10519778;28;20028;-53
2022/08/09 04:28:22;;;;;;;2.28;1.50;;;22.20;59.00;;;;;;10537986;28;20053;-55
2022/08/09 04:33:23;;;;;;;5.93;1.90;;;22.20;59.40;;;;;;10536332;28;20032;-54
2022/08/09 04:38:24;;;;;;;3.10;1.83;;;22.20;58.90;;;;;;10517971;28;20049;-54
2022/08/09 04:43:24;;;;;;;2.53;1.50;;;22.20;58.80;;;;;;10538506;28;20040;-54
2022/08/09 04:48:25;;;;;;;3.30;1.65;;;22.10;58.90;;;;;;10503431;28;20058;-55
2022/08/09 04:53:26;;;;;;;4.15;1.88;;;22.10;58.90;;;;;;10520176;28;20024;-55
2022/08/09 04:58:27;;;;;;;2.15;1.55;;;22.10;58.90;;;;;;10502834;28;20075;-54
2022/08/09 05:03:29;;;;;;;5.40;1.88;;;22.10;58.90;;;;;;10519713;28;20035;-54
2022/08/09 05:08:29;;;;;;;2.28;1.85;;;22.10;58.90;;;;;;10519676;28;20151;-55
2022/08/09 05:13:30;;;;;;;4.07;1.50;;;22.10;59.00;;;;;;10535516;28;20046;-54
2022/08/09 05:18:32;;;;;;;5.65;1.70;;;22.10;59.50;;;;;;10518506;28;20024;-56
2022/08/09 05:23:32;;;;;;;6.68;1.90;;;22.10;59.80;;;;;;10536668;28;20092;-54
2022/08/09 05:28:33;;;;;;;4.10;1.52;;;22.10;59.90;;;;;;10536601;28;20036;-53
2022/08/09 05:33:34;;;;;;;4.75;1.70;;;22.20;60.20;;;;;;10536775;28;20031;-54
2022/08/09 05:38:35;;;;;;;2.28;1.50;;;22.20;60.40;;;;;;10536585;28;20039;-56
2022/08/09 05:43:35;;;;;;;3.45;1.55;;;22.20;60.40;;;;;;10535986;28;20039;-57
2022/08/09 05:48:36;;;;;;;9.18;2.35;;;22.20;60.40;;;;;;10534032;28;20111;-55
2022/08/09 05:53:37;;;;;;;5.45;1.70;;;22.20;59.90;;;;;;10535152;28;20032;-56
2022/08/09 05:58:37;;;;;;;6.25;1.95;;;22.20;59.90;;;;;;10517579;28;20100;-56
2022/08/09 06:03:38;;;;;;;8.23;2.28;;;22.20;59.80;;;;;;10534074;28;20119;-56
2022/08/09 06:08:39;;;;;;;9.20;2.05;;;22.20;60.20;;;;;;10516075;28;20035;-56
2022/08/09 06:13:40;;;;;;;6.93;1.90;;;22.20;60.20;;;;;;10533487;28;20119;-56
2022/08/09 06:18:41;;;;;;;5.60;2.53;;;22.10;60.10;;;;;;10515465;28;20032;-56
2022/08/09 06:23:42;;;;;;;5.32;1.92;;;22.10;60.10;;;;;;10514878;28;20028;-56
2022/08/09 06:28:42;;;;;;;6.03;1.95;;;22.10;60.10;;;;;;10514790;28;20028;-57
2022/08/09 06:33:43;;;;;;;4.70;2.58;;;22.10;60.10;;;;;;10532705;28;20036;-56
2022/08/09 06:38:44;;;;;;;5.78;2.30;;;22.10;60.10;;;;;;10514805;28;20105;-54
2022/08/09 06:43:46;;;;;;;4.60;1.80;;;22.10;61.20;;;;;;10512945;28;20550;-54
2022/08/09 06:48:47;;;;;;;8.95;2.63;;;22.10;61.10;;;;;;10532245;28;20529;-54
2022/08/09 06:53:48;;;;;;;5.05;1.38;;;22.20;61.30;;;;;;10531261;28;20157;-54
2022/08/09 06:58:48;;;;;;;5.35;1.98;;;22.20;60.80;;;;;;10531274;28;20031;-54
2022/08/09 07:03:49;;;;;;;3.03;1.90;;;22.10;60.80;;;;;;10531296;28;20429;-54
2022/08/09 07:08:50;;;;;;;10.55;2.78;;;22.40;60.40;;;;;;10526808;28;20373;-54
2022/08/09 07:13:51;;;;;;;17.38;2.78;;;22.50;60.10;;;;;;10513803;28;20427;-54
2022/08/09 07:18:52;;;;;;;8.93;3.22;;;22.30;60.70;;;;;;10512908;28;20390;-53
2022/08/09 07:23:52;;;;;;;7.43;2.38;;;22.30;61.20;;;;;;10531497;28;20101;-53
2022/08/09 07:28:53;;;;;;;5.28;1.77;;;22.20;61.60;;;;;;10531452;28;20032;-54
2022/08/09 07:33:54;;;;;;;8.13;1.85;;;22.20;61.40;;;;;;10494811;28;20020;-54
2022/08/09 07:38:56;;;;;;;4.63;2.30;;;22.20;61.40;;;;;;10531431;28;20059;-53
2022/08/09 07:43:57;;;;;;;5.72;1.92;;;22.20;61.90;;;;;;10532367;28;20028;-55
2022/08/09 07:48:58;;;;;;;5.13;1.65;;;22.20;62.00;;;;;;10540400;28;20430;-53
2022/08/09 07:53:59;;;;;;;5.63;2.20;;;22.20;62.10;;;;;;10540437;28;20030;-55
2022/08/09 07:59:00;;;;;;;4.45;1.83;;;22.20;61.90;;;;;;10540669;28;20028;-50
2022/08/09 08:04:02;;;;;;;2.85;1.67;;;22.20;61.60;;;;;;10522320;28;20028;-54
2022/08/09 08:09:02;;;;;;;5.55;1.75;;;22.20;61.50;;;;;;10539388;28;20475;-55
2022/08/09 08:14:03;;;;;;;6.95;2.00;;;22.30;61.50;;;;;;10539271;28;20036;-54
2022/08/09 08:19:04;;;;;;;3.72;1.58;;;22.30;61.50;;;;;;10521099;28;20034;-55
2022/08/09 08:24:04;;;;;;;3.65;1.65;;;22.20;61.20;;;;;;10539203;28;20368;-52
2022/08/09 08:29:05;;;;;;;6.78;2.13;;;22.30;60.90;;;;;;10539020;28;20370;-53
2022/08/09 08:34:06;;;;;;;5.05;1.65;;;22.30;60.60;;;;;;10539391;28;20028;-54
2022/08/09 08:39:07;;;;;;;3.00;1.65;;;22.30;60.30;;;;;;10536554;28;20132;-53
2022/08/09 08:44:08;;;;;;;6.53;1.50;;;22.30;59.90;;;;;;10535722;28;20043;-50
2022/08/09 08:49:11;;;;;;;162.75;81.25;;;22.30;59.40;;;;;;10535964;28;20039;-55
2022/08/09 08:54:13;;;;;;;16.63;9.90;;;22.40;62.80;;;;;;10534511;28;20463;-52
2022/08/09 08:59:13;;;;;;;9.88;4.72;;;22.50;61.10;;;;;;10535295;28;20044;-51
2022/08/09 09:04:16;;;;;;;6.57;4.22;;;22.40;58.80;;;;;;10534661;28;20479;-53
2022/08/09 09:09:19;;;;;;;6.72;3.70;;;22.40;58.80;;;;;;10516493;28;20030;-51
2022/08/09 09:14:23;;;;;;;5.53;3.20;;;22.40;58.40;;;;;;10534153;28;20026;-53
2022/08/09 09:19:24;;;;;;;6.55;2.92;;;22.40;59.00;;;;;;10534529;28;20078;-48
2022/08/09 09:24:33;;;;;;;6.20;2.33;;;22.40;58.00;;;;;;10535159;28;20154;-53
2022/08/09 09:29:40;;;;;;;4.07;2.08;;;22.40;57.90;;;;;;10531997;28;20035;-51
2022/08/09 09:34:42;;;;;;;5.93;2.20;;;22.40;57.70;;;;;;10533924;28;20035;-53
2022/08/09 09:39:52;;;;;;;9.20;2.65;;;22.40;57.50;;;;;;10495442;28;1101488;-52
2022/08/09 09:45:05;;;;;;;8.13;1.55;;;22.40;57.30;;;;;;10535771;28;20027;-52
2022/08/09 09:50:06;;;;;;;3.45;1.80;;;22.40;57.40;;;;;;10515780;28;20040;-53
2022/08/09 09:55:10;;;;;;;3.78;1.83;;;22.40;57.60;;;;;;10533663;28;20023;-54
2022/08/09 10:00:23;;;;;;;6.40;1.92;;;22.40;57.80;;;;;;10515397;28;20035;-53
2022/08/09 10:05:25;;;;;;;5.82;1.90;;;22.50;58.00;;;;;;10533656;28;20039;-54
2022/08/09 10:10:29;;;;;;;8.00;2.42;;;22.50;58.10;;;;;;10534256;28;20103;-54
2022/08/09 10:15:30;;;;;;;5.80;1.67;;;22.50;58.20;;;;;;10534623;28;20038;-53
2022/08/09 10:20:31;;;;;;;2.92;1.75;;;22.50;58.20;;;;;;10516608;28;20513;-53
2022/08/09 10:25:33;;;;;;;2.85;1.50;;;22.50;58.30;;;;;;10516415;28;20028;-52
2022/08/09 10:30:34;;;;;;;7.35;3.03;;;22.50;58.40;;;;;;10515874;28;20560;-53
2022/08/09 10:35:36;;;;;;;4.57;1.48;;;22.60;58.50;;;;;;10516189;28;20024;-52
2022/08/09 10:40:37;;;;;;;2.83;1.38;;;22.60;58.50;;;;;;10533604;28;20068;-53
2022/08/09 10:45:43;;;;;;;6.75;1.33;;;22.60;58.50;;;;;;10516044;28;20036;-53
2022/08/09 10:51:08;;;;;;;2.22;1.33;;;22.60;58.50;;;;;;10533598;28;20093;-53
2022/08/09 10:56:26;;;;;;;3.08;1.85;;;22.60;58.50;;;;;;10518850;28;20025;-52
2022/08/09 11:01:34;;;;;;;2.70;1.40;;;22.60;58.50;;;;;;10533303;28;20055;-53
2022/08/09 11:06:41;;;;;;;2.70;1.10;;;22.70;58.50;;;;;;10533465;28;20028;-54
2022/08/09 11:11:54;;;;;;;4.22;1.35;;;22.70;58.50;;;;;;10532758;28;20035;-54
2022/08/09 11:16:56;;;;;;;2.58;1.50;;;22.70;58.50;;;;;;10532920;28;20035;-52
2022/08/09 11:21:58;;;;;;;3.05;1.60;;;22.70;58.60;;;;;;10514246;28;20817;-53
2022/08/09 11:26:59;;;;;;;2.83;1.10;;;22.70;58.70;;;;;;10532736;28;20035;-53
2022/08/09 11:32:00;;;;;;;2.35;1.40;;;22.70;58.70;;;;;;10532435;28;20498;-53
2022/08/09 11:37:02;;;;;;;1.98;1.33;;;22.70;58.80;;;;;;10532233;28;20089;-54
2022/08/09 11:42:09;;;;;;;2.25;0.90;;;22.70;58.80;;;;;;10532322;28;20119;-53
2022/08/09 11:47:10;;;;;;;1.92;1.10;;;22.70;58.90;;;;;;10514658;28;20036;-52
2022/08/09 11:52:11;;;;;;;2.10;1.15;;;22.80;58.90;;;;;;10514121;28;20024;-51
2022/08/09 11:57:40;;;;;;;1.77;1.23;;;22.80;59.00;;;;;;10532564;28;20433;-52
2022/08/09 12:02:41;;;;;;;1.67;1.00;;;22.70;59.00;;;;;;10532215;28;20067;-54
2022/08/09 12:07:42;;;;;;;3.75;1.20;;;22.80;59.10;;;;;;10532209;28;20391;-53
2022/08/09 12:12:47;;;;;;;1.45;1.13;;;22.80;59.10;;;;;;10531640;28;20044;-54
2022/08/09 12:17:50;;;;;;;1.38;1.05;;;22.80;59.20;;;;;;10531530;28;20039;-52
2022/08/09 12:22:57;;;;;;;1.85;1.13;;;22.80;59.10;;;;;;10531557;28;20032;-53
2022/08/09 12:28:20;;;;;;;1.83;0.90;;;22.80;59.20;;;;;;10513484;28;20127;-51
2022/08/09 12:33:23;;;;;;;1.30;1.10;;;22.80;59.20;;;;;;10536543;28;20055;-54
2022/08/09 12:38:29;;;;;;;2.53;1.83;;;22.80;59.20;;;;;;10538203;28;20082;-52
2022/08/09 12:43:30;;;;;;;1.08;0.82;;;22.80;59.30;;;;;;10538802;28;20428;-53
2022/08/09 12:48:32;;;;;;;1.23;0.88;;;22.80;59.30;;;;;;10520419;28;20036;-53
2022/08/09 12:53:39;;;;;;;0.95;0.82;;;22.90;59.30;;;;;;10520212;28;20059;-55
2022/08/09 12:58:43;;;;;;;1.85;0.85;;;22.90;59.30;;;;;;10537874;28;20060;-54
2022/08/09 13:04:08;;;;;;;1.23;0.98;;;22.90;59.30;;;;;;10519614;28;20047;-49
2022/08/09 13:09:22;;;;;;;1.15;0.82;;;22.90;59.30;;;;;;10537671;28;20498;-53
2022/08/09 13:14:26;;;;;;;1.70;0.85;;;22.90;59.20;;;;;;10537341;28;20055;-53
2022/08/09 13:19:38;;;;;;;1.30;0.73;;;22.90;59.30;;;;;;10537387;28;20132;-53
2022/08/09 13:24:41;;;;;;;1.90;0.55;;;23.00;59.30;;;;;;10537056;28;20036;-51
2022/08/09 13:29:52;;;;;;;1.13;0.82;;;22.90;59.20;;;;;;10536693;28;20036;-54
2022/08/09 13:34:52;;;;;;;1.25;0.80;;;23.00;59.20;;;;;;10536625;28;20032;-53
2022/08/09 13:39:53;;;;;;;1.65;1.05;;;23.00;59.20;;;;;;10518350;28;20112;-52
2022/08/09 13:44:54;;;;;;;1.08;0.95;;;22.90;59.10;;;;;;10516973;28;20031;-54
2022/08/09 13:49:55;;;;;;;1.42;0.75;;;22.90;59.10;;;;;;10517576;28;20747;-53
2022/08/09 13:54:56;;;;;;;2.60;0.98;;;23.00;59.20;;;;;;10536000;28;20028;-54
2022/08/09 13:59:57;;;;;;;1.77;0.98;;;22.90;59.80;;;;;;10535447;28;20065;-53
2022/08/09 14:04:58;;;;;;;0.52;0.40;;;22.90;59.30;;;;;;10535224;28;20040;-53
2022/08/09 14:09:58;;;;;;;1.13;0.90;;;22.90;59.20;;;;;;10517385;28;20701;-52
2022/08/09 14:14:59;;;;;;;1.17;0.80;;;22.90;59.30;;;;;;10534956;28;20054;-54
2022/08/09 14:20:00;;;;;;;2.33;1.00;;;22.90;59.20;;;;;;10534827;28;20047;-54
2022/08/09 14:25:01;;;;;;;1.40;0.98;;;22.90;59.30;;;;;;10534624;28;20360;-52
2022/08/09 14:30:02;;;;;;;1.42;0.57;;;22.90;59.20;;;;;;10534504;28;20032;-54
2022/08/09 14:35:06;;;;;;;1.10;0.70;;;22.90;59.20;;;;;;10516258;28;20024;-54
2022/08/09 14:40:07;;;;;;;1.02;0.70;;;22.90;59.30;;;;;;10533993;28;20054;-53
2022/08/09 14:45:10;;;;;;;1.70;0.80;;;22.90;59.30;;;;;;10534096;28;20032;-53
2022/08/09 14:50:11;;;;;;;1.13;0.82;;;22.80;59.30;;;;;;10515177;28;20040;-53
2022/08/09 14:55:11;;;;;;;0.88;0.80;;;22.80;59.10;;;;;;10533049;28;20024;-52
2022/08/09 15:00:12;;;;;;;0.80;0.68;;;22.90;59.00;;;;;;10533156;28;20028;-53
2022/08/09 15:05:14;;;;;;;3.28;0.93;;;22.80;58.60;;;;;;10533095;28;20483;-52
2022/08/09 15:10:14;;;;;;;2.55;0.90;;;22.80;58.80;;;;;;10519514;28;20076;-56
2022/08/09 15:15:15;;;;;;;5.00;0.90;;;22.80;58.70;;;;;;10532464;28;20100;-55
2022/08/09 15:20:17;;;;;;;2.28;1.17;;;22.90;58.70;;;;;;10513832;28;20123;-54
2022/08/09 15:25:18;;;;;;;3.78;0.93;;;22.80;58.60;;;;;;10532613;28;20360;-53
2022/08/09 15:30:19;;;;;;;2.22;1.00;;;22.80;58.30;;;;;;10514412;28;20093;-55
2022/08/09 15:35:21;;;;;;;2.38;0.88;;;22.80;58.20;;;;;;10532560;28;20028;-55
2022/08/09 15:40:22;;;;;;;3.80;0.90;;;22.80;58.10;;;;;;10532072;28;20082;-54
2022/08/09 15:45:23;;;;;;;2.65;0.57;;;22.80;58.30;;;;;;10513717;28;20028;-54
2022/08/09 15:50:24;;;;;;;5.68;1.30;;;22.80;58.20;;;;;;10531489;28;20040;-54
2022/08/09 15:55:25;;;;;;;20.00;3.90;;;22.80;57.40;;;;;;10512089;28;20367;-54
2022/08/09 16:00:25;;;;;;;9.55;3.13;;;22.90;58.10;;;;;;10530048;28;20032;-53
2022/08/09 16:05:28;;;;;;;9.98;3.30;;;22.90;57.50;;;;;;10529972;28;20106;-52
2022/08/09 16:10:29;;;;;;;7.72;2.78;;;22.90;57.80;;;;;;10539512;28;20598;-54
2022/08/09 16:15:30;;;;;;;9.27;3.03;;;23.00;57.30;;;;;;10539439;28;20052;-54
2022/08/09 16:20:31;;;;;;;30.25;22.95;;;23.00;58.00;;;;;;10539670;28;20040;-54
2022/08/09 16:25:31;;;;;;;7.75;6.03;;;23.00;55.40;;;;;;10538565;28;20087;-53
2022/08/09 16:30:32;;;;;;;5.53;3.92;;;23.10;55.80;;;;;;10534813;28;20483;-52
2022/08/09 16:35:33;;;;;;;7.82;4.00;;;23.10;55.80;;;;;;10538979;28;20367;-54
2022/08/09 16:40:34;;;;;;;7.43;2.97;;;23.00;55.40;;;;;;10539042;28;20368;-53
2022/08/09 16:45:35;;;;;;;5.82;2.90;;;23.00;56.70;;;;;;10538268;28;20036;-54
2022/08/09 16:50:36;;;;;;;3.95;2.03;;;22.90;57.00;;;;;;10519490;28;20024;-54
2022/08/09 16:55:36;;;;;;;4.50;1.85;;;22.90;55.40;;;;;;10517906;28;20058;-52
2022/08/09 17:00:37;;;;;;;3.05;1.98;;;23.00;55.40;;;;;;10518469;28;20059;-53
2022/08/09 17:05:38;;;;;;;2.90;1.73;;;23.00;56.10;;;;;;10532089;28;20039;-53
2022/08/09 17:10:39;;;;;;;4.53;1.50;;;23.00;55.90;;;;;;10515421;28;20115;-55
2022/08/09 17:15:40;;;;;;;19.98;10.40;;;23.00;55.40;;;;;;10536600;28;20110;-54
2022/08/09 17:20:41;;;;;;;4.93;2.70;;;23.10;56.20;;;;;;10514887;28;20030;-54
2022/08/09 17:25:43;;;;;;;7.55;2.95;;;23.10;55.50;;;;;;10535584;28;20040;-53
2022/08/09 17:30:44;;;;;;;6.47;3.05;;;23.00;56.20;;;;;;10527845;28;20056;-53
2022/08/09 17:35:45;;;;;;;7.18;2.42;;;23.10;55.80;;;;;;10534379;28;20103;-54
2022/08/09 17:40:46;;;;;;;6.13;2.45;;;23.10;55.60;;;;;;10535111;28;20040;-54
2022/08/09 17:45:46;;;;;;;6.78;1.98;;;23.10;55.60;;;;;;10516432;28;20486;-55
2022/08/09 17:50:47;;;;;;;16.95;4.13;;;23.10;55.70;;;;;;10524299;28;20028;-53
2022/08/09 17:55:48;;;;;;;14.25;3.95;;;23.00;56.50;;;;;;10535095;28;20472;-52
2022/08/09 18:00:49;;;;;;;9.68;3.42;;;23.00;56.60;;;;;;10517717;28;20032;-53
2022/08/09 18:05:49;;;;;;;10.50;3.35;;;23.00;57.00;;;;;;10503340;28;20107;-54
2022/08/09 18:10:50;;;;;;;10.00;2.97;;;23.00;57.00;;;;;;10516024;28;20028;-53
2022/08/09 18:15:51;;;;;;;7.55;2.90;;;23.10;56.90;;;;;;10531858;28;20036;-53
2022/08/09 18:20:52;;;;;;;7.55;2.42;;;23.10;56.40;;;;;;10525134;28;20047;-50
2022/08/09 18:25:53;;;;;;;14.55;3.05;;;23.00;55.60;;;;;;10534511;28;20527;-51
2022/08/09 18:30:54;;;;;;;6.93;2.78;;;23.10;55.80;;;;;;10531652;28;20031;-50
2022/08/09 18:35:56;;;;;;;13.20;3.50;;;23.00;56.40;;;;;;10515659;28;20425;-52
2022/08/09 18:40:57;;;;;;;10.50;2.22;;;23.00;56.40;;;;;;10490952;28;20044;-52
2022/08/09 18:45:59;;;;;;;7.43;2.25;;;23.00;56.40;;;;;;10491780;28;20063;-54
2022/08/09 18:51:00;;;;;;;8.15;2.05;;;23.10;56.40;;;;;;10491711;28;20036;-51
2022/08/09 18:56:00;;;;;;;12.55;2.63;;;23.00;56.30;;;;;;10490706;28;20712;-52
2022/08/09 19:01:01;;;;;;;3.90;1.42;;;23.00;56.10;;;;;;10490241;28;20070;-50
2022/08/09 19:06:02;;;;;;;7.05;2.17;;;23.00;56.10;;;;;;10490599;28;20086;-53
2022/08/09 19:11:03;;;;;;;4.68;1.30;;;23.00;56.00;;;;;;10490721;28;20033;-52
2022/08/09 19:16:03;;;;;;;3.92;1.38;;;23.10;56.00;;;;;;10490566;28;21310;-53
2022/08/09 19:21:06;;;;;;;4.25;1.85;;;23.10;55.60;;;;;;10491201;28;20036;-52
2022/08/09 19:26:07;;;;;;;4.47;1.38;;;23.10;55.40;;;;;;10489106;28;20121;-51
2022/08/09 19:31:07;;;;;;;2.65;1.60;;;23.10;55.40;;;;;;10489470;28;20418;-52
2022/08/09 19:36:09;;;;;;;3.42;1.25;;;23.10;55.30;;;;;;10489071;28;20035;-53
2022/08/09 19:41:09;;;;;;;3.30;1.63;;;23.10;55.20;;;;;;10492944;28;20546;-54
2022/08/09 19:46:10;;;;;;;5.70;1.67;;;23.00;55.10;;;;;;10499211;28;20040;-53
2022/08/09 19:51:11;;;;;;;2.35;1.67;;;23.10;55.20;;;;;;10498932;28;20490;-50
2022/08/09 19:56:12;;;;;;;5.85;1.65;;;23.10;55.80;;;;;;10497164;28;20116;-50
2022/08/09 20:01:12;;;;;;;2.13;1.30;;;23.10;55.70;;;;;;10497668;28;20464;-50
2022/08/09 20:06:14;;;;;;;2.28;1.13;;;23.10;55.60;;;;;;10494618;28;20154;-50
2022/08/09 20:11:14;;;;;;;5.75;1.92;;;23.10;55.60;;;;;;10497381;28;20484;-52
2022/08/09 20:16:15;;;;;;;5.57;2.47;;;23.10;55.70;;;;;;10496878;28;20036;-52
2022/08/09 20:21:16;;;;;;;4.32;1.20;;;23.10;55.70;;;;;;10497446;28;20107;-53
2022/08/09 20:26:16;;;;;;;3.15;1.33;;;23.10;56.00;;;;;;10478682;28;20032;-51
2022/08/09 20:31:17;;;;;;;2.03;0.95;;;23.00;55.90;;;;;;10496504;28;20541;-52
2022/08/09 20:36:18;;;;;;;2.42;1.48;;;23.10;56.10;;;;;;10496482;28;20089;-50
2022/08/09 20:41:19;;;;;;;3.78;1.45;;;23.10;56.20;;;;;;10478404;28;20045;-51
2022/08/09 20:46:20;;;;;;;2.08;1.10;;;23.10;56.30;;;;;;10495255;28;20418;-53
2022/08/09 20:51:22;;;;;;;6.05;1.30;;;23.10;56.30;;;;;;10496321;28;20033;-51
2022/08/09 20:56:23;;;;;;;1.30;1.10;;;23.10;56.40;;;;;;10496501;28;20029;-50
2022/08/09 21:01:26;;;;;;;3.03;1.50;;;23.10;56.50;;;;;;10496497;28;20682;-53
2022/08/09 21:06:26;;;;;;;3.50;1.40;;;23.00;56.60;;;;;;10495850;28;20120;-53
2022/08/09 21:11:27;;;;;;;1.92;1.13;;;23.10;56.70;;;;;;10495911;28;20043;-53
2022/08/09 21:16:28;;;;;;;2.60;0.85;;;23.10;56.70;;;;;;10496035;28;20438;-54
2022/08/09 21:21:28;;;;;;;1.55;1.27;;;23.10;56.80;;;;;;10494430;28;20036;-53
2022/08/09 21:26:29;;;;;;;2.72;1.10;;;23.00;56.80;;;;;;10495515;28;20115;-58
2022/08/09 21:31:30;;;;;;;2.30;1.15;;;23.00;56.80;;;;;;10494147;28;20387;-51
2022/08/09 21:36:30;;;;;;;0.90;0.70;;;23.00;56.90;;;;;;10493974;28;20409;-54
2022/08/09 21:41:33;;;;;;;1.80;1.13;;;23.00;56.90;;;;;;10531920;28;20124;-48
2022/08/09 21:46:34;;;;;;;2.50;1.20;;;23.00;57.00;;;;;;10536252;28;20036;-53
2022/08/09 21:51:34;;;;;;;2.85;1.20;;;23.00;57.00;;;;;;10536371;28;20085;-51
2022/08/09 21:56:35;;;;;;;2.08;1.20;;;23.00;57.00;;;;;;10535917;28;20504;-51
2022/08/09 22:01:36;;;;;;;1.80;0.73;;;23.00;57.10;;;;;;10535755;28;20032;-50
2022/08/09 22:06:37;;;;;;;1.70;1.02;;;23.00;57.10;;;;;;10534309;28;20072;-50
2022/08/09 22:11:39;;;;;;;2.10;0.93;;;23.00;57.10;;;;;;10535087;28;20488;-52
2022/08/09 22:16:39;;;;;;;1.77;0.75;;;23.00;57.10;;;;;;10533682;28;20064;-49
2022/08/09 22:21:40;;;;;;;2.45;1.10;;;23.00;57.10;;;;;;10531136;28;20112;-50
2022/08/09 22:26:41;;;;;;;1.25;0.80;;;23.00;57.10;;;;;;10534152;28;20044;-51
2022/08/09 22:31:42;;;;;;;1.73;0.80;;;23.00;57.80;;;;;;10534827;28;20032;-51
2022/08/09 22:36:42;;;;;;;1.75;0.95;;;23.00;57.10;;;;;;10534530;28;20023;-53
2022/08/09 22:41:43;;;;;;;2.78;1.10;;;23.00;57.10;;;;;;10516235;28;20123;-51
2022/08/09 22:46:44;;;;;;;1.00;0.73;;;23.00;57.10;;;;;;10534465;28;20195;-50
2022/08/09 22:51:45;;;;;;;2.22;0.88;;;23.00;57.20;;;;;;10533871;28;20056;-52
2022/08/09 22:56:45;;;;;;;2.20;1.10;;;23.00;57.20;;;;;;10515292;28;20035;-53
2022/08/09 23:01:46;;;;;;;1.40;0.90;;;23.00;57.20;;;;;;10533457;28;20035;-54
2022/08/09 23:12:06;;;;;;;1.58;1.00;;;23.00;57.20;;;;;;10520744;28;20032;-50
2022/08/09 23:17:07;;;;;;;2.25;0.95;;;23.00;57.20;;;;;;10532535;28;20111;-52
2022/08/09 23:22:08;;;;;;;1.20;0.73;;;23.00;57.30;;;;;;10533131;28;20490;-51
2022/08/09 23:27:09;;;;;;;1.77;0.90;;;23.00;57.30;;;;;;10532349;28;20020;-49
2022/08/09 23:32:10;;;;;;;1.25;0.73;;;23.00;57.30;;;;;;10533054;28;20058;-50
2022/08/09 23:37:10;;;;;;;1.35;0.70;;;23.00;57.30;;;;;;10532071;28;20032;-51
2022/08/09 23:42:11;;;;;;;1.05;0.82;;;23.00;57.30;;;;;;10514689;28;20044;-49
2022/08/09 23:47:12;;;;;;;1.42;0.73;;;23.00;57.30;;;;;;10532359;28;20035;-48
2022/08/09 23:52:13;;;;;;;1.42;1.00;;;22.90;57.30;;;;;;10532446;28;20040;-50
2022/08/09 23:57:13;;;;;;;0.82;0.73;;;23.00;57.30;;;;;;10532250;28;20024;-47
